sensor_id;sensor_type;location;lat;lon;timestamp;P1;durP1;ratioP1;P2;durP2;ratioP2
3068;SDS011;1545;51.728;8.796;2023-03-23T00:00:08;6.67;;;3.60;;
3068;SDS011;1545;51.728;8.796;2023-03-23T00:02:33;6.73;;;3.80;;
3068;SDS011;1545;51.728;8.796;2023-03-23T00:05:02;6.80;;;3.40;;
3068;SDS011;1545;51.728;8.796;2023-03-23T00:07:29;9.50;;;3.97;;
3068;SDS011;1545;51.728;8.796;2023-03-23T00:09:55;8.67;;;3.83;;
3068;SDS011;1545;51.728;8.796;2023-03-23T00:12:21;5.40;;;3.20;;
3068;SDS011;1545;51.728;8.796;2023-03-23T00:14:54;9.93;;;3.90;;
3068;SDS011;1545;51.728;8.796;2023-03-23T00:17:20;7.40;;;3.47;;
3068;SDS011;1545;51.728;8.796;2023-03-23T00:19:46;6.67;;;3.63;;
3068;SDS011;1545;51.728;8.796;2023-03-23T00:22:16;6.00;;;3.20;;
3068;SDS011;1545;51.728;8.796;2023-03-23T00:24:44;8.27;;;3.60;;
3068;SDS011;1545;51.728;8.796;2023-03-23T00:27:10;7.10;;;3.17;;
3068;SDS011;1545;51.728;8.796;2023-03-23T00:29:37;11.07;;;3.40;;
3068;SDS011;1545;51.728;8.796;2023-03-23T00:32:04;7.70;;;3.63;;
3068;SDS011;1545;51.728;8.796;2023-03-23T00:34:30;9.27;;;4.20;;
3068;SDS011;1545;51.728;8.796;2023-03-23T00:36:58;9.93;;;4.17;;
3068;SDS011;1545;51.728;8.796;2023-03-23T00:39:24;8.53;;;3.67;;
3068;SDS011;1545;51.728;8.796;2023-03-23T00:41:51;12.77;;;3.53;;
3068;SDS011;1545;51.728;8.796;2023-03-23T00:44:18;7.20;;;4.03;;
3068;SDS011;1545;51.728;8.796;2023-03-23T00:46:44;7.83;;;3.97;;
3068;SDS011;1545;51.728;8.796;2023-03-23T00:49:15;5.40;;;2.90;;
3068;SDS011;1545;51.728;8.796;2023-03-23T00:51:44;5.43;;;3.63;;
3068;SDS011;1545;51.728;8.796;2023-03-23T00:54:10;7.27;;;3.80;;
3068;SDS011;1545;51.728;8.796;2023-03-23T00:56:36;9.53;;;3.40;;
3068;SDS011;1545;51.728;8.796;2023-03-23T00:59:04;7.97;;;3.73;;
3068;SDS011;1545;51.728;8.796;2023-03-23T01:01:30;8.33;;;3.67;;
3068;SDS011;1545;51.728;8.796;2023-03-23T01:03:57;7.40;;;3.67;;
3068;SDS011;1545;51.728;8.796;2023-03-23T01:06:26;9.47;;;3.67;;
3068;SDS011;1545;51.728;8.796;2023-03-23T01:08:53;9.97;;;4.13;;
3068;SDS011;1545;51.728;8.796;2023-03-23T01:11:19;7.00;;;4.43;;
3068;SDS011;1545;51.728;8.796;2023-03-23T01:13:44;10.70;;;4.30;;
3068;SDS011;1545;51.728;8.796;2023-03-23T01:16:10;11.27;;;4.90;;
3068;SDS011;1545;51.728;8.796;2023-03-23T01:18:37;7.40;;;4.07;;
3068;SDS011;1545;51.728;8.796;2023-03-23T01:21:07;8.30;;;4.57;;
3068;SDS011;1545;51.728;8.796;2023-03-23T01:23:37;8.90;;;4.37;;
3068;SDS011;1545;51.728;8.796;2023-03-23T01:26:07;8.73;;;4.20;;
3068;SDS011;1545;51.728;8.796;2023-03-23T01:28:37;8.23;;;4.67;;
3068;SDS011;1545;51.728;8.796;2023-03-23T01:31:04;7.10;;;4.10;;
3068;SDS011;1545;51.728;8.796;2023-03-23T01:33:31;7.93;;;3.97;;
3068;SDS011;1545;51.728;8.796;2023-03-23T01:35:57;13.20;;;4.57;;
3068;SDS011;1545;51.728;8.796;2023-03-23T01:38:26;9.80;;;4.30;;
3068;SDS011;1545;51.728;8.796;2023-03-23T01:40:52;9.27;;;4.40;;
3068;SDS011;1545;51.728;8.796;2023-03-23T01:43:17;10.37;;;4.13;;
3068;SDS011;1545;51.728;8.796;2023-03-23T01:45:43;7.77;;;4.50;;
3068;SDS011;1545;51.728;8.796;2023-03-23T01:48:51;6.87;;;4.10;;
3068;SDS011;1545;51.728;8.796;2023-03-23T01:53:40;9.80;;;4.40;;
3068;SDS011;1545;51.728;8.796;2023-03-23T01:56:10;6.03;;;4.13;;
3068;SDS011;1545;51.728;8.796;2023-03-23T01:58:39;10.80;;;5.03;;
3068;SDS011;1545;51.728;8.796;2023-03-23T02:01:06;11.50;;;4.30;;
3068;SDS011;1545;51.728;8.796;2023-03-23T02:03:36;7.63;;;3.80;;
3068;SDS011;1545;51.728;8.796;2023-03-23T02:06:03;8.67;;;3.90;;
3068;SDS011;1545;51.728;8.796;2023-03-23T02:08:29;8.50;;;4.20;;
3068;SDS011;1545;51.728;8.796;2023-03-23T02:10:59;7.97;;;4.33;;
3068;SDS011;1545;51.728;8.796;2023-03-23T02:13:25;9.23;;;4.50;;
3068;SDS011;1545;51.728;8.796;2023-03-23T02:23:52;10.37;;;4.57;;
3068;SDS011;1545;51.728;8.796;2023-03-23T02:26:33;12.53;;;4.47;;
3068;SDS011;1545;51.728;8.796;2023-03-23T02:29:13;8.10;;;4.37;;
3068;SDS011;1545;51.728;8.796;2023-03-23T02:34:28;7.60;;;4.10;;
3068;SDS011;1545;51.728;8.796;2023-03-23T02:37:09;7.93;;;4.13;;
3068;SDS011;1545;51.728;8.796;2023-03-23T02:39:41;6.93;;;3.77;;
3068;SDS011;1545;51.728;8.796;2023-03-23T02:42:18;9.60;;;4.53;;
3068;SDS011;1545;51.728;8.796;2023-03-23T02:44:48;7.07;;;3.77;;
3068;SDS011;1545;51.728;8.796;2023-03-23T02:47:17;14.07;;;4.43;;
3068;SDS011;1545;51.728;8.796;2023-03-23T02:49:48;10.03;;;4.13;;
3068;SDS011;1545;51.728;8.796;2023-03-23T02:52:20;11.03;;;4.70;;
3068;SDS011;1545;51.728;8.796;2023-03-23T02:54:49;8.60;;;4.20;;
3068;SDS011;1545;51.728;8.796;2023-03-23T02:57:17;10.83;;;4.73;;
3068;SDS011;1545;51.728;8.796;2023-03-23T02:59:42;10.00;;;4.37;;
3068;SDS011;1545;51.728;8.796;2023-03-23T03:02:16;8.40;;;4.30;;
3068;SDS011;1545;51.728;8.796;2023-03-23T03:04:52;8.73;;;4.40;;
3068;SDS011;1545;51.728;8.796;2023-03-23T03:07:30;7.27;;;4.80;;
3068;SDS011;1545;51.728;8.796;2023-03-23T03:10:22;10.63;;;4.47;;
3068;SDS011;1545;51.728;8.796;2023-03-23T03:13:13;12.47;;;4.60;;
3068;SDS011;1545;51.728;8.796;2023-03-23T03:15:48;10.93;;;4.80;;
3068;SDS011;1545;51.728;8.796;2023-03-23T03:18:30;7.43;;;4.60;;
3068;SDS011;1545;51.728;8.796;2023-03-23T03:21:03;8.77;;;4.43;;
3068;SDS011;1545;51.728;8.796;2023-03-23T03:23:33;13.47;;;4.50;;
3068;SDS011;1545;51.728;8.796;2023-03-23T03:26:00;12.20;;;5.70;;
3068;SDS011;1545;51.728;8.796;2023-03-23T03:28:29;9.43;;;5.03;;
3068;SDS011;1545;51.728;8.796;2023-03-23T03:30:57;7.33;;;4.33;;
3068;SDS011;1545;51.728;8.796;2023-03-23T03:33:27;9.97;;;4.63;;
3068;SDS011;1545;51.728;8.796;2023-03-23T03:35:56;8.83;;;5.33;;
3068;SDS011;1545;51.728;8.796;2023-03-23T03:38:23;11.23;;;4.87;;
3068;SDS011;1545;51.728;8.796;2023-03-23T03:40:49;9.03;;;4.80;;
3068;SDS011;1545;51.728;8.796;2023-03-23T03:43:16;9.90;;;4.90;;
3068;SDS011;1545;51.728;8.796;2023-03-23T03:45:42;10.90;;;4.70;;
3068;SDS011;1545;51.728;8.796;2023-03-23T03:48:07;9.93;;;4.93;;
3068;SDS011;1545;51.728;8.796;2023-03-23T03:50:33;7.40;;;3.93;;
3068;SDS011;1545;51.728;8.796;2023-03-23T03:52:59;9.13;;;4.03;;
3068;SDS011;1545;51.728;8.796;2023-03-23T03:55:25;8.13;;;3.57;;
3068;SDS011;1545;51.728;8.796;2023-03-23T03:57:52;6.97;;;3.07;;
3068;SDS011;1545;51.728;8.796;2023-03-23T04:00:19;6.90;;;3.03;;
3068;SDS011;1545;51.728;8.796;2023-03-23T04:02:46;5.57;;;3.13;;
3068;SDS011;1545;51.728;8.796;2023-03-23T04:05:15;3.90;;;2.83;;
3068;SDS011;1545;51.728;8.796;2023-03-23T04:07:41;8.83;;;3.57;;
3068;SDS011;1545;51.728;8.796;2023-03-23T04:10:08;3.77;;;2.70;;
3068;SDS011;1545;51.728;8.796;2023-03-23T04:12:38;4.43;;;2.73;;
3068;SDS011;1545;51.728;8.796;2023-03-23T04:15:04;4.60;;;3.03;;
3068;SDS011;1545;51.728;8.796;2023-03-23T04:17:30;4.73;;;3.37;;
3068;SDS011;1545;51.728;8.796;2023-03-23T04:19:56;5.50;;;3.47;;
3068;SDS011;1545;51.728;8.796;2023-03-23T04:22:23;4.10;;;2.90;;
3068;SDS011;1545;51.728;8.796;2023-03-23T04:24:58;8.73;;;3.50;;
3068;SDS011;1545;51.728;8.796;2023-03-23T04:27:25;5.60;;;3.77;;
3068;SDS011;1545;51.728;8.796;2023-03-23T04:29:56;8.20;;;3.70;;
3068;SDS011;1545;51.728;8.796;2023-03-23T04:32:26;5.47;;;3.30;;
3068;SDS011;1545;51.728;8.796;2023-03-23T04:34:53;5.40;;;3.30;;
3068;SDS011;1545;51.728;8.796;2023-03-23T04:37:23;6.37;;;3.70;;
3068;SDS011;1545;51.728;8.796;2023-03-23T04:39:51;4.77;;;3.30;;
3068;SDS011;1545;51.728;8.796;2023-03-23T04:42:24;5.33;;;2.90;;
3068;SDS011;1545;51.728;8.796;2023-03-23T04:44:54;4.23;;;2.90;;
3068;SDS011;1545;51.728;8.796;2023-03-23T04:47:20;6.17;;;3.30;;
3068;SDS011;1545;51.728;8.796;2023-03-23T04:49:46;4.60;;;2.93;;
3068;SDS011;1545;51.728;8.796;2023-03-23T04:52:12;4.57;;;3.10;;
3068;SDS011;1545;51.728;8.796;2023-03-23T04:54:38;4.43;;;2.97;;
3068;SDS011;1545;51.728;8.796;2023-03-23T04:57:04;4.47;;;2.80;;
3068;SDS011;1545;51.728;8.796;2023-03-23T04:59:30;2.87;;;2.37;;
3068;SDS011;1545;51.728;8.796;2023-03-23T05:01:55;6.07;;;2.77;;
3068;SDS011;1545;51.728;8.796;2023-03-23T05:04:21;4.53;;;3.10;;
3068;SDS011;1545;51.728;8.796;2023-03-23T05:06:49;5.73;;;2.90;;
3068;SDS011;1545;51.728;8.796;2023-03-23T05:09:16;4.23;;;2.63;;
3068;SDS011;1545;51.728;8.796;2023-03-23T05:11:41;5.37;;;2.77;;
3068;SDS011;1545;51.728;8.796;2023-03-23T05:14:06;3.13;;;2.60;;
3068;SDS011;1545;51.728;8.796;2023-03-23T05:16:32;6.33;;;2.90;;
3068;SDS011;1545;51.728;8.796;2023-03-23T05:18:57;4.60;;;2.73;;
3068;SDS011;1545;51.728;8.796;2023-03-23T05:21:23;5.33;;;2.70;;
3068;SDS011;1545;51.728;8.796;2023-03-23T05:23:48;4.33;;;2.80;;
3068;SDS011;1545;51.728;8.796;2023-03-23T05:26:20;4.83;;;2.80;;
3068;SDS011;1545;51.728;8.796;2023-03-23T05:28:46;3.27;;;2.50;;
3068;SDS011;1545;51.728;8.796;2023-03-23T05:31:13;3.60;;;2.77;;
3068;SDS011;1545;51.728;8.796;2023-03-23T05:33:38;3.10;;;2.70;;
3068;SDS011;1545;51.728;8.796;2023-03-23T05:36:04;7.37;;;3.37;;
3068;SDS011;1545;51.728;8.796;2023-03-23T05:38:31;5.50;;;2.60;;
3068;SDS011;1545;51.728;8.796;2023-03-23T05:40:58;5.70;;;2.80;;
3068;SDS011;1545;51.728;8.796;2023-03-23T05:43:26;5.13;;;3.10;;
3068;SDS011;1545;51.728;8.796;2023-03-23T05:45:51;4.50;;;2.73;;
3068;SDS011;1545;51.728;8.796;2023-03-23T05:48:17;4.17;;;2.73;;
3068;SDS011;1545;51.728;8.796;2023-03-23T05:50:43;5.73;;;3.37;;
3068;SDS011;1545;51.728;8.796;2023-03-23T05:53:08;4.90;;;2.97;;
3068;SDS011;1545;51.728;8.796;2023-03-23T05:55:34;4.50;;;2.87;;
3068;SDS011;1545;51.728;8.796;2023-03-23T05:58:00;4.10;;;2.87;;
3068;SDS011;1545;51.728;8.796;2023-03-23T06:00:26;6.37;;;2.90;;
3068;SDS011;1545;51.728;8.796;2023-03-23T06:02:55;4.40;;;2.93;;
3068;SDS011;1545;51.728;8.796;2023-03-23T06:05:23;4.03;;;3.13;;
3068;SDS011;1545;51.728;8.796;2023-03-23T06:07:50;5.90;;;3.33;;
3068;SDS011;1545;51.728;8.796;2023-03-23T06:10:17;5.37;;;3.37;;
3068;SDS011;1545;51.728;8.796;2023-03-23T06:12:42;4.80;;;3.07;;
3068;SDS011;1545;51.728;8.796;2023-03-23T06:15:08;5.50;;;3.10;;
3068;SDS011;1545;51.728;8.796;2023-03-23T06:17:35;6.37;;;3.00;;
3068;SDS011;1545;51.728;8.796;2023-03-23T06:20:02;5.47;;;3.03;;
3068;SDS011;1545;51.728;8.796;2023-03-23T06:22:32;4.93;;;3.17;;
3068;SDS011;1545;51.728;8.796;2023-03-23T06:24:58;7.20;;;3.27;;
3068;SDS011;1545;51.728;8.796;2023-03-23T06:27:23;8.60;;;3.40;;
3068;SDS011;1545;51.728;8.796;2023-03-23T06:29:49;5.43;;;3.30;;
3068;SDS011;1545;51.728;8.796;2023-03-23T06:32:15;4.63;;;3.20;;
3068;SDS011;1545;51.728;8.796;2023-03-23T06:34:40;8.03;;;3.37;;
3068;SDS011;1545;51.728;8.796;2023-03-23T06:37:08;4.73;;;3.40;;
3068;SDS011;1545;51.728;8.796;2023-03-23T06:39:34;5.13;;;2.90;;
3068;SDS011;1545;51.728;8.796;2023-03-23T06:42:00;4.00;;;3.00;;
3068;SDS011;1545;51.728;8.796;2023-03-23T06:44:26;4.23;;;2.93;;
3068;SDS011;1545;51.728;8.796;2023-03-23T06:46:52;6.07;;;3.20;;
3068;SDS011;1545;51.728;8.796;2023-03-23T06:49:17;5.57;;;3.23;;
3068;SDS011;1545;51.728;8.796;2023-03-23T06:51:43;5.40;;;3.33;;
3068;SDS011;1545;51.728;8.796;2023-03-23T06:54:08;9.20;;;3.67;;
3068;SDS011;1545;51.728;8.796;2023-03-23T06:56:34;4.37;;;3.00;;
3068;SDS011;1545;51.728;8.796;2023-03-23T06:59:00;6.20;;;3.50;;
3068;SDS011;1545;51.728;8.796;2023-03-23T07:01:25;5.53;;;3.57;;
3068;SDS011;1545;51.728;8.796;2023-03-23T07:03:53;5.70;;;3.33;;
3068;SDS011;1545;51.728;8.796;2023-03-23T07:06:19;7.10;;;3.50;;
3068;SDS011;1545;51.728;8.796;2023-03-23T07:08:46;6.37;;;3.40;;
3068;SDS011;1545;51.728;8.796;2023-03-23T07:11:12;6.27;;;3.30;;
3068;SDS011;1545;51.728;8.796;2023-03-23T07:13:37;6.43;;;3.30;;
3068;SDS011;1545;51.728;8.796;2023-03-23T07:16:06;4.93;;;3.20;;
3068;SDS011;1545;51.728;8.796;2023-03-23T07:18:32;4.57;;;2.97;;
3068;SDS011;1545;51.728;8.796;2023-03-23T07:20:58;6.63;;;3.03;;
3068;SDS011;1545;51.728;8.796;2023-03-23T07:23:24;4.40;;;3.23;;
3068;SDS011;1545;51.728;8.796;2023-03-23T07:25:50;6.67;;;4.00;;
3068;SDS011;1545;51.728;8.796;2023-03-23T07:28:17;7.90;;;3.83;;
3068;SDS011;1545;51.728;8.796;2023-03-23T07:30:43;6.07;;;3.50;;
3068;SDS011;1545;51.728;8.796;2023-03-23T07:33:09;6.97;;;3.37;;
3068;SDS011;1545;51.728;8.796;2023-03-23T07:35:35;6.70;;;3.50;;
3068;SDS011;1545;51.728;8.796;2023-03-23T07:38:02;6.47;;;3.83;;
3068;SDS011;1545;51.728;8.796;2023-03-23T07:40:28;5.57;;;3.20;;
3068;SDS011;1545;51.728;8.796;2023-03-23T07:42:58;5.30;;;3.20;;
3068;SDS011;1545;51.728;8.796;2023-03-23T07:45:24;6.17;;;3.17;;
3068;SDS011;1545;51.728;8.796;2023-03-23T07:47:50;5.60;;;3.40;;
3068;SDS011;1545;51.728;8.796;2023-03-23T07:50:16;8.70;;;3.33;;
3068;SDS011;1545;51.728;8.796;2023-03-23T07:52:42;5.10;;;3.40;;
3068;SDS011;1545;51.728;8.796;2023-03-23T07:55:09;4.63;;;3.17;;
3068;SDS011;1545;51.728;8.796;2023-03-23T07:57:43;7.37;;;3.40;;
3068;SDS011;1545;51.728;8.796;2023-03-23T08:00:09;7.47;;;3.07;;
3068;SDS011;1545;51.728;8.796;2023-03-23T08:02:47;18.67;;;10.27;;
3068;SDS011;1545;51.728;8.796;2023-03-23T08:05:15;6.67;;;3.40;;
3068;SDS011;1545;51.728;8.796;2023-03-23T08:07:41;8.10;;;3.73;;
3068;SDS011;1545;51.728;8.796;2023-03-23T08:10:07;10.83;;;3.70;;
3068;SDS011;1545;51.728;8.796;2023-03-23T08:12:37;13.20;;;3.90;;
3068;SDS011;1545;51.728;8.796;2023-03-23T08:15:04;9.90;;;4.00;;
3068;SDS011;1545;51.728;8.796;2023-03-23T08:17:31;7.07;;;3.37;;
3068;SDS011;1545;51.728;8.796;2023-03-23T08:19:58;7.83;;;3.47;;
3068;SDS011;1545;51.728;8.796;2023-03-23T08:22:23;9.73;;;3.40;;
3068;SDS011;1545;51.728;8.796;2023-03-23T08:24:49;10.17;;;2.90;;
3068;SDS011;1545;51.728;8.796;2023-03-23T08:27:15;9.23;;;3.50;;
3068;SDS011;1545;51.728;8.796;2023-03-23T08:29:40;8.43;;;3.43;;
3068;SDS011;1545;51.728;8.796;2023-03-23T08:32:09;10.07;;;4.50;;
3068;SDS011;1545;51.728;8.796;2023-03-23T08:34:34;16.27;;;3.90;;
3068;SDS011;1545;51.728;8.796;2023-03-23T08:37:00;8.03;;;3.60;;
3068;SDS011;1545;51.728;8.796;2023-03-23T08:39:25;21.50;;;4.20;;
3068;SDS011;1545;51.728;8.796;2023-03-23T08:41:51;10.03;;;3.73;;
3068;SDS011;1545;51.728;8.796;2023-03-23T08:44:17;11.17;;;3.67;;
3068;SDS011;1545;51.728;8.796;2023-03-23T08:46:42;10.80;;;4.27;;
3068;SDS011;1545;51.728;8.796;2023-03-23T08:49:08;13.13;;;3.90;;
3068;SDS011;1545;51.728;8.796;2023-03-23T08:51:33;7.80;;;3.57;;
3068;SDS011;1545;51.728;8.796;2023-03-23T08:54:00;10.57;;;3.80;;
3068;SDS011;1545;51.728;8.796;2023-03-23T08:56:26;9.07;;;3.33;;
3068;SDS011;1545;51.728;8.796;2023-03-23T08:58:52;12.17;;;4.37;;
3068;SDS011;1545;51.728;8.796;2023-03-23T09:01:18;9.93;;;3.83;;
3068;SDS011;1545;51.728;8.796;2023-03-23T09:03:43;9.73;;;3.47;;
3068;SDS011;1545;51.728;8.796;2023-03-23T09:06:09;9.87;;;3.93;;
3068;SDS011;1545;51.728;8.796;2023-03-23T09:08:37;6.90;;;3.60;;
3068;SDS011;1545;51.728;8.796;2023-03-23T09:11:05;9.73;;;3.90;;
3068;SDS011;1545;51.728;8.796;2023-03-23T09:13:32;10.73;;;3.73;;
3068;SDS011;1545;51.728;8.796;2023-03-23T09:15:58;8.93;;;3.60;;
3068;SDS011;1545;51.728;8.796;2023-03-23T09:18:24;8.47;;;4.03;;
3068;SDS011;1545;51.728;8.796;2023-03-23T09:20:50;11.33;;;5.00;;
3068;SDS011;1545;51.728;8.796;2023-03-23T09:23:17;12.00;;;3.43;;
3068;SDS011;1545;51.728;8.796;2023-03-23T09:25:43;8.20;;;3.73;;
3068;SDS011;1545;51.728;8.796;2023-03-23T09:28:08;6.50;;;3.53;;
3068;SDS011;1545;51.728;8.796;2023-03-23T09:30:34;15.17;;;3.30;;
3068;SDS011;1545;51.728;8.796;2023-03-23T09:33:01;7.77;;;3.97;;
3068;SDS011;1545;51.728;8.796;2023-03-23T09:35:28;12.07;;;3.40;;
3068;SDS011;1545;51.728;8.796;2023-03-23T09:37:53;10.23;;;3.10;;
3068;SDS011;1545;51.728;8.796;2023-03-23T09:40:23;6.80;;;3.37;;
3068;SDS011;1545;51.728;8.796;2023-03-23T09:49:15;5.20;;;3.20;;
3068;SDS011;1545;51.728;8.796;2023-03-23T09:51:51;5.40;;;3.23;;
3068;SDS011;1545;51.728;8.796;2023-03-23T10:00:11;8.87;;;3.20;;
3068;SDS011;1545;51.728;8.796;2023-03-23T10:07:58;7.43;;;3.00;;
3068;SDS011;1545;51.728;8.796;2023-03-23T10:10:36;13.30;;;3.60;;
3068;SDS011;1545;51.728;8.796;2023-03-23T10:13:24;10.37;;;3.67;;
3068;SDS011;1545;51.728;8.796;2023-03-23T10:15:56;9.53;;;3.47;;
3068;SDS011;1545;51.728;8.796;2023-03-23T10:18:25;9.67;;;3.80;;
3068;SDS011;1545;51.728;8.796;2023-03-23T10:20:57;9.83;;;3.23;;
3068;SDS011;1545;51.728;8.796;2023-03-23T10:23:42;11.23;;;3.70;;
3068;SDS011;1545;51.728;8.796;2023-03-23T10:26:28;9.37;;;3.83;;
3068;SDS011;1545;51.728;8.796;2023-03-23T10:31:41;12.90;;;3.53;;
3068;SDS011;1545;51.728;8.796;2023-03-23T10:34:12;10.10;;;3.63;;
3068;SDS011;1545;51.728;8.796;2023-03-23T10:36:55;14.63;;;3.80;;
3068;SDS011;1545;51.728;8.796;2023-03-23T10:39:29;12.83;;;3.50;;
3068;SDS011;1545;51.728;8.796;2023-03-23T10:42:21;10.27;;;3.53;;
3068;SDS011;1545;51.728;8.796;2023-03-23T10:44:52;9.73;;;3.30;;
3068;SDS011;1545;51.728;8.796;2023-03-23T10:47:18;12.60;;;4.33;;
3068;SDS011;1545;51.728;8.796;2023-03-23T10:49:51;9.83;;;3.70;;
3068;SDS011;1545;51.728;8.796;2023-03-23T10:52:24;11.43;;;3.80;;
3068;SDS011;1545;51.728;8.796;2023-03-23T10:54:58;10.30;;;3.57;;
3068;SDS011;1545;51.728;8.796;2023-03-23T10:57:30;24.07;;;9.20;;
3068;SDS011;1545;51.728;8.796;2023-03-23T10:59:59;14.87;;;4.07;;
3068;SDS011;1545;51.728;8.796;2023-03-23T11:02:32;12.60;;;3.83;;
3068;SDS011;1545;51.728;8.796;2023-03-23T11:05:12;12.57;;;4.43;;
3068;SDS011;1545;51.728;8.796;2023-03-23T11:07:42;10.87;;;3.37;;
3068;SDS011;1545;51.728;8.796;2023-03-23T11:10:28;7.77;;;3.27;;
3068;SDS011;1545;51.728;8.796;2023-03-23T11:13:03;11.97;;;3.73;;
3068;SDS011;1545;51.728;8.796;2023-03-23T11:15:34;15.90;;;3.63;;
3068;SDS011;1545;51.728;8.796;2023-03-23T11:18:21;11.97;;;4.27;;
3068;SDS011;1545;51.728;8.796;2023-03-23T11:21:04;9.87;;;4.00;;
3068;SDS011;1545;51.728;8.796;2023-03-23T11:23:41;8.40;;;3.03;;
3068;SDS011;1545;51.728;8.796;2023-03-23T11:26:15;15.13;;;4.30;;
3068;SDS011;1545;51.728;8.796;2023-03-23T11:28:55;14.47;;;4.30;;
3068;SDS011;1545;51.728;8.796;2023-03-23T11:31:38;8.73;;;3.80;;
3068;SDS011;1545;51.728;8.796;2023-03-23T11:34:10;10.00;;;3.63;;
3068;SDS011;1545;51.728;8.796;2023-03-23T11:36:42;11.67;;;3.63;;
3068;SDS011;1545;51.728;8.796;2023-03-23T11:39:20;11.13;;;4.03;;
3068;SDS011;1545;51.728;8.796;2023-03-23T11:41:47;12.93;;;3.53;;
3068;SDS011;1545;51.728;8.796;2023-03-23T11:44:13;9.57;;;3.40;;
3068;SDS011;1545;51.728;8.796;2023-03-23T11:46:41;9.50;;;3.30;;
3068;SDS011;1545;51.728;8.796;2023-03-23T11:49:37;12.80;;;3.63;;
3068;SDS011;1545;51.728;8.796;2023-03-23T11:55:10;10.40;;;3.30;;
3068;SDS011;1545;51.728;8.796;2023-03-23T11:57:42;9.43;;;3.17;;
3068;SDS011;1545;51.728;8.796;2023-03-23T12:00:12;11.50;;;3.93;;
3068;SDS011;1545;51.728;8.796;2023-03-23T12:11:09;12.80;;;4.10;;
3068;SDS011;1545;51.728;8.796;2023-03-23T12:13:56;6.10;;;3.40;;
3068;SDS011;1545;51.728;8.796;2023-03-23T12:26:50;4.47;;;2.40;;
3068;SDS011;1545;51.728;8.796;2023-03-23T12:32:25;4.67;;;2.60;;
3068;SDS011;1545;51.728;8.796;2023-03-23T12:37:41;4.70;;;2.40;;
3068;SDS011;1545;51.728;8.796;2023-03-23T12:40:35;7.70;;;2.87;;
3068;SDS011;1545;51.728;8.796;2023-03-23T12:43:13;3.90;;;2.53;;
3068;SDS011;1545;51.728;8.796;2023-03-23T12:45:56;7.83;;;2.70;;
3068;SDS011;1545;51.728;8.796;2023-03-23T12:48:52;7.47;;;2.80;;
3068;SDS011;1545;51.728;8.796;2023-03-23T12:51:21;3.87;;;2.60;;
3068;SDS011;1545;51.728;8.796;2023-03-23T12:59:43;7.27;;;2.63;;
3068;SDS011;1545;51.728;8.796;2023-03-23T13:02:22;9.20;;;3.77;;
3068;SDS011;1545;51.728;8.796;2023-03-23T13:04:57;6.70;;;3.00;;
3068;SDS011;1545;51.728;8.796;2023-03-23T13:07:30;7.53;;;3.60;;
3068;SDS011;1545;51.728;8.796;2023-03-23T13:10:12;6.10;;;3.03;;
3068;SDS011;1545;51.728;8.796;2023-03-23T13:12:44;10.10;;;3.80;;
3068;SDS011;1545;51.728;8.796;2023-03-23T13:20:32;6.33;;;3.30;;
3068;SDS011;1545;51.728;8.796;2023-03-23T13:23:22;10.37;;;3.57;;
3068;SDS011;1545;51.728;8.796;2023-03-23T13:25:52;5.50;;;3.13;;
3068;SDS011;1545;51.728;8.796;2023-03-23T13:28:22;7.27;;;3.33;;
3068;SDS011;1545;51.728;8.796;2023-03-23T13:33:29;6.30;;;3.40;;
3068;SDS011;1545;51.728;8.796;2023-03-23T13:36:08;8.33;;;3.40;;
3068;SDS011;1545;51.728;8.796;2023-03-23T13:38:36;24.87;;;12.53;;
3068;SDS011;1545;51.728;8.796;2023-03-23T13:41:07;10.90;;;4.97;;
3068;SDS011;1545;51.728;8.796;2023-03-23T13:43:36;10.33;;;4.30;;
3068;SDS011;1545;51.728;8.796;2023-03-23T13:48:47;9.03;;;3.90;;
3068;SDS011;1545;51.728;8.796;2023-03-23T13:51:31;9.40;;;4.60;;
3068;SDS011;1545;51.728;8.796;2023-03-23T13:56:42;9.33;;;4.50;;
3068;SDS011;1545;51.728;8.796;2023-03-23T13:59:29;7.67;;;4.50;;
3068;SDS011;1545;51.728;8.796;2023-03-23T14:02:40;7.93;;;4.47;;
3068;SDS011;1545;51.728;8.796;2023-03-23T14:04:57;12.03;;;4.40;;
3068;SDS011;1545;51.728;8.796;2023-03-23T14:10:22;9.27;;;4.93;;
3068;SDS011;1545;51.728;8.796;2023-03-23T14:12:49;7.93;;;4.83;;
3068;SDS011;1545;51.728;8.796;2023-03-23T14:15:17;8.03;;;4.60;;
3068;SDS011;1545;51.728;8.796;2023-03-23T14:17:43;8.07;;;4.47;;
3068;SDS011;1545;51.728;8.796;2023-03-23T14:20:17;8.87;;;4.50;;
3068;SDS011;1545;51.728;8.796;2023-03-23T14:22:53;14.07;;;6.77;;
3068;SDS011;1545;51.728;8.796;2023-03-23T14:25:20;25.07;;;14.87;;
3068;SDS011;1545;51.728;8.796;2023-03-23T14:27:50;15.13;;;7.60;;
3068;SDS011;1545;51.728;8.796;2023-03-23T14:30:18;29.07;;;16.40;;
3068;SDS011;1545;51.728;8.796;2023-03-23T14:32:45;8.03;;;5.20;;
3068;SDS011;1545;51.728;8.796;2023-03-23T14:35:23;7.70;;;4.83;;
3068;SDS011;1545;51.728;8.796;2023-03-23T14:37:52;19.33;;;5.47;;
3068;SDS011;1545;51.728;8.796;2023-03-23T14:40:19;18.50;;;5.40;;
3068;SDS011;1545;51.728;8.796;2023-03-23T14:42:45;8.70;;;5.03;;
3068;SDS011;1545;51.728;8.796;2023-03-23T14:45:16;13.33;;;6.13;;
3068;SDS011;1545;51.728;8.796;2023-03-23T14:47:44;11.67;;;5.67;;
3068;SDS011;1545;51.728;8.796;2023-03-23T14:50:27;8.40;;;5.40;;
3068;SDS011;1545;51.728;8.796;2023-03-23T14:55:59;12.30;;;5.53;;
3068;SDS011;1545;51.728;8.796;2023-03-23T14:58:27;11.53;;;5.57;;
3068;SDS011;1545;51.728;8.796;2023-03-23T15:03:24;11.00;;;6.30;;
3068;SDS011;1545;51.728;8.796;2023-03-23T15:05:54;13.70;;;6.63;;
3068;SDS011;1545;51.728;8.796;2023-03-23T15:08:26;10.00;;;5.80;;
3068;SDS011;1545;51.728;8.796;2023-03-23T15:11:07;10.73;;;5.97;;
3068;SDS011;1545;51.728;8.796;2023-03-23T15:13:34;12.50;;;6.90;;
3068;SDS011;1545;51.728;8.796;2023-03-23T15:16:02;11.17;;;6.27;;
3068;SDS011;1545;51.728;8.796;2023-03-23T15:18:31;13.30;;;8.17;;
3068;SDS011;1545;51.728;8.796;2023-03-23T15:21:10;13.07;;;7.53;;
3068;SDS011;1545;51.728;8.796;2023-03-23T15:23:43;14.00;;;7.63;;
3068;SDS011;1545;51.728;8.796;2023-03-23T15:26:17;14.87;;;8.13;;
3068;SDS011;1545;51.728;8.796;2023-03-23T15:29:05;13.23;;;8.10;;
3068;SDS011;1545;51.728;8.796;2023-03-23T15:31:40;16.07;;;10.13;;
3068;SDS011;1545;51.728;8.796;2023-03-23T15:34:13;17.73;;;10.77;;
3068;SDS011;1545;51.728;8.796;2023-03-23T15:36:43;14.67;;;10.40;;
3068;SDS011;1545;51.728;8.796;2023-03-23T15:39:09;17.40;;;10.37;;
3068;SDS011;1545;51.728;8.796;2023-03-23T15:41:44;20.10;;;10.20;;
3068;SDS011;1545;51.728;8.796;2023-03-23T15:44:18;12.47;;;8.87;;
3068;SDS011;1545;51.728;8.796;2023-03-23T15:46:49;17.30;;;9.90;;
3068;SDS011;1545;51.728;8.796;2023-03-23T15:49:16;19.00;;;9.63;;
3068;SDS011;1545;51.728;8.796;2023-03-23T15:51:42;16.87;;;10.47;;
3068;SDS011;1545;51.728;8.796;2023-03-23T15:54:09;18.23;;;10.90;;
3068;SDS011;1545;51.728;8.796;2023-03-23T15:56:39;20.93;;;9.70;;
3068;SDS011;1545;51.728;8.796;2023-03-23T15:59:04;15.80;;;9.37;;
3068;SDS011;1545;51.728;8.796;2023-03-23T16:01:30;13.27;;;8.90;;
3068;SDS011;1545;51.728;8.796;2023-03-23T16:03:57;13.43;;;8.67;;
3068;SDS011;1545;51.728;8.796;2023-03-23T16:06:32;16.13;;;8.83;;
3068;SDS011;1545;51.728;8.796;2023-03-23T16:08:58;15.73;;;8.93;;
3068;SDS011;1545;51.728;8.796;2023-03-23T16:11:26;14.37;;;8.90;;
3068;SDS011;1545;51.728;8.796;2023-03-23T16:13:53;17.30;;;9.03;;
3068;SDS011;1545;51.728;8.796;2023-03-23T16:16:20;13.50;;;8.40;;
3068;SDS011;1545;51.728;8.796;2023-03-23T16:18:48;12.63;;;8.10;;
3068;SDS011;1545;51.728;8.796;2023-03-23T16:21:14;12.23;;;7.60;;
3068;SDS011;1545;51.728;8.796;2023-03-23T16:23:39;12.23;;;7.57;;
3068;SDS011;1545;51.728;8.796;2023-03-23T16:26:08;13.40;;;7.07;;
3068;SDS011;1545;51.728;8.796;2023-03-23T16:28:33;14.00;;;8.03;;
3068;SDS011;1545;51.728;8.796;2023-03-23T16:30:59;15.53;;;7.13;;
3068;SDS011;1545;51.728;8.796;2023-03-23T16:33:24;12.50;;;7.30;;
3068;SDS011;1545;51.728;8.796;2023-03-23T16:35:50;15.97;;;8.10;;
3068;SDS011;1545;51.728;8.796;2023-03-23T16:38:16;14.57;;;6.00;;
3068;SDS011;1545;51.728;8.796;2023-03-23T16:40:42;14.10;;;7.43;;
3068;SDS011;1545;51.728;8.796;2023-03-23T16:43:09;14.57;;;7.30;;
3068;SDS011;1545;51.728;8.796;2023-03-23T16:45:36;10.87;;;6.00;;
3068;SDS011;1545;51.728;8.796;2023-03-23T16:48:03;14.40;;;6.33;;
3068;SDS011;1545;51.728;8.796;2023-03-23T16:50:29;12.93;;;6.07;;
3068;SDS011;1545;51.728;8.796;2023-03-23T16:52:55;12.23;;;6.40;;